Time;durP1;ratioP1;P1;durP2;ratioP2;P2;SDS_P1;SDS_P2;PMS_P1;PMS_P2;Temp;Humidity;BMP_temperature;BMP_pressure;BME280_temperature;BME280_humidity;BME280_pressure;Samples;Min_cycle;Max_cycle;Signal;HPM_P1;HPM_P2
2022/11/22 00:01:36;;;;;;;7.07;5.90;;;;;;;;;;5157671;27;20447;-71
2022/11/22 00:04:03;;;;;;;8.43;6.00;;;;;;;;;;5157167;27;20940;-71
2022/11/22 00:06:30;;;;;;;11.20;6.33;;;;;;;;;;5157172;27;20462;-71
2022/11/22 00:08:57;;;;;;;6.77;4.60;;;;;;;;;;5157672;27;20424;-71
2022/11/22 00:11:25;;;;;;;7.10;5.77;;;;;;;;;;5157351;27;20448;-71
2022/11/22 00:13:53;;;;;;;8.40;5.97;;;;;;;;;;5156501;27;20470;-71
2022/11/22 00:16:20;;;;;;;9.80;6.83;;;;;;;;;;5157224;27;21011;-71
2022/11/22 00:18:47;;;;;;;8.00;6.40;;;;;;;;;;5156856;27;20445;-71
2022/11/22 00:21:14;;;;;;;8.00;6.03;;;;;;;;;;5157137;27;20447;-71
2022/11/22 00:23:41;;;;;;;11.23;6.87;;;;;;;;;;5155632;27;20839;-70
2022/11/22 00:26:10;;;;;;;7.80;5.50;;;;;;;;;;5156957;27;20468;-71
2022/11/22 00:28:39;;;;;;;12.93;6.83;;;;;;;;;;5156955;27;20443;-72
2022/11/22 00:31:06;;;;;;;8.73;6.97;;;;;;;;;;5156327;27;20450;-71
2022/11/22 00:33:33;;;;;;;19.20;7.67;;;;;;;;;;5155890;27;20443;-71
2022/11/22 00:36:00;;;;;;;10.23;6.90;;;;;;;;;;5156840;27;20958;-71
2022/11/22 00:38:28;;;;;;;10.13;6.73;;;;;;;;;;5156766;27;20448;-71
2022/11/22 00:40:55;;;;;;;11.70;7.20;;;;;;;;;;5156894;27;20787;-71
2022/11/22 00:43:22;;;;;;;11.27;6.33;;;;;;;;;;5156592;27;20444;-71
2022/11/22 00:45:50;;;;;;;13.40;7.67;;;;;;;;;;5156373;27;20454;-71
2022/11/22 00:48:18;;;;;;;13.03;6.53;;;;;;;;;;5156728;27;20439;-71
2022/11/22 00:50:45;;;;;;;8.90;7.20;;;;;;;;;;5156540;27;20448;-71
2022/11/22 00:53:12;;;;;;;8.80;6.17;;;;;;;;;;5156117;27;20547;-71
2022/11/22 00:55:39;;;;;;;7.63;6.50;;;;;;;;;;5156529;27;20790;-71
2022/11/22 00:58:06;;;;;;;17.50;7.10;;;;;;;;;;5156200;27;20494;-71
2022/11/22 01:00:33;;;;;;;10.40;6.97;;;;;;;;;;5156602;27;20440;-71
2022/11/22 01:03:02;;;;;;;8.57;6.17;;;;;;;;;;5156558;27;20451;-71
2022/11/22 01:05:29;;;;;;;7.37;6.00;;;;;;;;;;5155990;27;20466;-72
2022/11/22 01:07:56;;;;;;;11.03;7.10;;;;;;;;;;5156157;27;20827;-71
2022/11/22 01:10:23;;;;;;;8.47;6.20;;;;;;;;;;5156124;27;20447;-72
2022/11/22 01:12:51;;;;;;;8.07;7.00;;;;;;;;;;5155829;27;20952;-71
2022/11/22 01:15:18;;;;;;;10.77;6.87;;;;;;;;;;5155965;27;20516;-71
2022/11/22 01:17:45;;;;;;;12.13;7.40;;;;;;;;;;5155684;27;20483;-71
2022/11/22 01:20:14;;;;;;;10.47;6.90;;;;;;;;;;5156126;27;20447;-72
2022/11/22 01:22:41;;;;;;;9.60;7.30;;;;;;;;;;5155929;27;20450;-71
2022/11/22 01:25:08;;;;;;;12.10;8.23;;;;;;;;;;5154328;27;20810;-71
2022/11/22 01:27:36;;;;;;;12.43;7.67;;;;;;;;;;5155811;27;20455;-70
2022/11/22 01:30:03;;;;;;;13.70;7.40;;;;;;;;;;5155989;27;20889;-71
2022/11/22 01:32:30;;;;;;;8.73;5.50;;;;;;;;;;5155797;27;20455;-71
2022/11/22 01:34:57;;;;;;;14.43;7.60;;;;;;;;;;5155450;27;20814;-71
2022/11/22 01:37:26;;;;;;;12.97;6.80;;;;;;;;;;5155328;27;20494;-71
2022/11/22 01:39:53;;;;;;;11.00;6.93;;;;;;;;;;5155411;27;20528;-71
2022/11/22 01:42:20;;;;;;;10.60;7.97;;;;;;;;;;5155606;27;20451;-71
2022/11/22 01:44:48;;;;;;;10.70;7.30;;;;;;;;;;5154964;27;20443;-71
2022/11/22 01:47:16;;;;;;;10.03;6.93;;;;;;;;;;5155168;27;20460;-71
2022/11/22 01:49:46;;;;;;;9.73;6.50;;;;;;;;;;5155587;27;20813;-71
2022/11/22 01:52:16;;;;;;;10.50;7.43;;;;;;;;;;5155496;27;20521;-70
2022/11/22 01:54:46;;;;;;;10.73;7.53;;;;;;;;;;5154793;27;20454;-71
2022/11/22 01:57:15;;;;;;;12.47;7.70;;;;;;;;;;5155432;27;20536;-71
2022/11/22 01:59:45;;;;;;;12.50;7.80;;;;;;;;;;5155407;27;20432;-71
2022/11/22 02:02:13;;;;;;;9.27;7.57;;;;;;;;;;5155485;27;20820;-72
2022/11/22 02:04:40;;;;;;;10.00;7.40;;;;;;;;;;5155072;27;20448;-72
2022/11/22 02:07:11;;;;;;;14.13;8.03;;;;;;;;;;5155183;27;20467;-71
2022/11/22 02:09:39;;;;;;;14.30;8.47;;;;;;;;;;5155346;27;20428;-71
2022/11/22 02:12:09;;;;;;;9.27;7.23;;;;;;;;;;5154834;27;20455;-71
2022/11/22 02:14:37;;;;;;;11.47;7.53;;;;;;;;;;5154459;27;20458;-71
2022/11/22 02:17:04;;;;;;;10.20;7.83;;;;;;;;;;5154965;27;20479;-71
2022/11/22 02:19:34;;;;;;;12.37;8.20;;;;;;;;;;5154801;27;20448;-71
2022/11/22 02:22:04;;;;;;;13.23;9.30;;;;;;;;;;5155236;27;20439;-72
2022/11/22 02:24:37;;;;;;;9.47;7.00;;;;;;;;;;5153789;27;20901;-71
2022/11/22 02:27:05;;;;;;;12.50;7.37;;;;;;;;;;5154992;27;20965;-71
2022/11/22 02:29:32;;;;;;;11.93;7.70;;;;;;;;;;5154778;27;20439;-71
2022/11/22 02:31:59;;;;;;;13.87;8.90;;;;;;;;;;5155263;27;20447;-71
2022/11/22 02:34:27;;;;;;;11.50;7.50;;;;;;;;;;5154585;27;20459;-71
2022/11/22 02:36:54;;;;;;;10.20;7.47;;;;;;;;;;5154935;27;20491;-71
2022/11/22 02:39:24;;;;;;;12.87;7.93;;;;;;;;;;5154685;27;20438;-71
2022/11/22 02:41:51;;;;;;;11.43;8.60;;;;;;;;;;5154857;27;20494;-71
2022/11/22 02:44:21;;;;;;;14.77;9.77;;;;;;;;;;5154297;27;20447;-71
2022/11/22 02:46:49;;;;;;;14.63;9.77;;;;;;;;;;5154812;27;20478;-71
2022/11/22 02:49:18;;;;;;;16.20;10.50;;;;;;;;;;5154854;27;20451;-71
2022/11/22 02:51:45;;;;;;;14.70;9.40;;;;;;;;;;5154451;27;20481;-71
2022/11/22 02:54:12;;;;;;;17.20;8.10;;;;;;;;;;5154112;27;20443;-71
2022/11/22 02:56:39;;;;;;;8.30;6.97;;;;;;;;;;5158247;27;20467;-71
2022/11/22 02:59:06;;;;;;;16.00;7.83;;;;;;;;;;5159224;27;20516;-72
2022/11/22 03:01:35;;;;;;;7.67;5.70;;;;;;;;;;5158838;27;20458;-72
2022/11/22 03:04:02;;;;;;;17.37;7.40;;;;;;;;;;5158812;27;20450;-72
2022/11/22 03:06:29;;;;;;;14.37;6.83;;;;;;;;;;5159176;27;20463;-72
2022/11/22 03:08:56;;;;;;;10.37;6.20;;;;;;;;;;5158672;27;20440;-72
2022/11/22 03:11:23;;;;;;;9.37;6.23;;;;;;;;;;5158888;27;20456;-71
2022/11/22 03:13:51;;;;;;;9.83;6.87;;;;;;;;;;5158581;27;20477;-71
2022/11/22 03:16:18;;;;;;;9.27;6.00;;;;;;;;;;5158776;27;20467;-72
2022/11/22 03:18:46;;;;;;;8.20;6.50;;;;;;;;;;5158664;27;20992;-72
2022/11/22 03:21:13;;;;;;;8.33;6.07;;;;;;;;;;5158717;27;20444;-72
2022/11/22 03:23:40;;;;;;;7.20;5.37;;;;;;;;;;5157250;27;20450;-71
2022/11/22 03:26:08;;;;;;;11.63;5.83;;;;;;;;;;5158535;27;20494;-72
2022/11/22 03:28:35;;;;;;;19.30;12.57;;;;;;;;;;5158437;27;20725;-71
2022/11/22 03:31:05;;;;;;;8.57;6.20;;;;;;;;;;5158410;27;20477;-72
2022/11/22 03:33:32;;;;;;;16.77;7.80;;;;;;;;;;5157756;27;20944;-71
2022/11/22 03:36:01;;;;;;;6.47;5.73;;;;;;;;;;5157919;27;20451;-72
2022/11/22 03:38:28;;;;;;;9.27;6.50;;;;;;;;;;5158059;27;20479;-71
2022/11/22 03:40:55;;;;;;;10.60;6.67;;;;;;;;;;5158315;27;20462;-71
2022/11/22 03:43:22;;;;;;;14.83;9.90;;;;;;;;;;5158056;27;20948;-70
2022/11/22 03:45:49;;;;;;;10.40;7.83;;;;;;;;;;5157605;27;20950;-71
2022/11/22 03:48:16;;;;;;;9.90;7.00;;;;;;;;;;5158207;27;20453;-72
2022/11/22 03:50:44;;;;;;;9.27;6.50;;;;;;;;;;5157931;27;20454;-71
2022/11/22 03:53:12;;;;;;;9.87;6.60;;;;;;;;;;5157180;27;21102;-71
2022/11/22 03:55:39;;;;;;;8.80;6.37;;;;;;;;;;5157875;27;20439;-71
2022/11/22 03:58:07;;;;;;;11.70;7.17;;;;;;;;;;5157624;27;20491;-72
2022/11/22 04:00:34;;;;;;;7.53;6.73;;;;;;;;;;5157721;27;20447;-71
2022/11/22 04:03:01;;;;;;;8.20;6.20;;;;;;;;;;5157574;27;20447;-71
2022/11/22 04:05:29;;;;;;;8.37;6.53;;;;;;;;;;5156943;27;20443;-72
2022/11/22 04:07:57;;;;;;;7.13;5.60;;;;;;;;;;5157413;27;20459;-72
2022/11/22 04:10:25;;;;;;;7.60;5.93;;;;;;;;;;5157703;27;20428;-71
2022/11/22 04:12:56;;;;;;;9.93;5.67;;;;;;;;;;5157231;27;20459;-71
2022/11/22 04:15:23;;;;;;;5.57;4.97;;;;;;;;;;5157211;27;20440;-72
2022/11/22 04:17:50;;;;;;;6.23;5.30;;;;;;;;;;5157443;27;20522;-71
2022/11/22 04:23:04;;;;;;;7.17;5.00;;;;;;;;;;5157240;27;20406;-72
2022/11/22 04:25:32;;;;;;;10.43;5.60;;;;;;;;;;5155968;27;20447;-71
2022/11/22 04:27:59;;;;;;;9.00;4.70;;;;;;;;;;5157305;27;20460;-71
2022/11/22 04:32:44;;;;;;;6.80;5.33;;;;;;;;;;5157386;27;20436;-72
2022/11/22 04:33:17;;;;;;;9.90;6.33;;;;;;;;;;5156922;27;20420;-72
2022/11/22 04:35:45;;;;;;;7.50;5.93;;;;;;;;;;5156712;27;20440;-71
2022/11/22 04:38:13;;;;;;;7.77;5.80;;;;;;;;;;5156868;27;20854;-71
2022/11/22 04:40:41;;;;;;;57.80;24.07;;;;;;;;;;5156858;27;20440;-71
2022/11/22 04:45:55;;;;;;;12.30;8.63;;;;;;;;;;5156650;27;20439;-71
2022/11/22 04:48:22;;;;;;;9.57;6.30;;;;;;;;;;5156950;27;20435;-71
2022/11/22 04:53:39;;;;;;;12.20;7.83;;;;;;;;;;5096719;27;20939;-71
2022/11/22 04:56:08;;;;;;;10.27;7.27;;;;;;;;;;5156793;27;20439;-72
2022/11/22 04:58:35;;;;;;;7.40;5.27;;;;;;;;;;5156841;27;20482;-71
2022/11/22 05:01:02;;;;;;;7.40;5.63;;;;;;;;;;5156391;27;20444;-71
2022/11/22 05:03:29;;;;;;;8.13;5.17;;;;;;;;;;5156282;27;20940;-71
2022/11/22 05:05:56;;;;;;;15.67;9.77;;;;;;;;;;5156150;27;20456;-73
2022/11/22 05:08:23;;;;;;;10.07;6.83;;;;;;;;;;5156531;27;20450;-72
2022/11/22 05:10:56;;;;;;;10.47;7.00;;;;;;;;;;5156112;27;20456;-72
2022/11/22 05:13:26;;;;;;;6.67;5.40;;;;;;;;;;5155883;27;20469;-71
2022/11/22 05:15:53;;;;;;;12.67;6.40;;;;;;;;;;5156269;27;20447;-72
2022/11/22 05:18:21;;;;;;;6.87;5.43;;;;;;;;;;5155666;27;20486;-72
2022/11/22 05:20:48;;;;;;;6.73;5.23;;;;;;;;;;5156210;27;20447;-72
2022/11/22 05:26:01;;;;;;;13.40;6.07;;;;;;;;;;5156046;27;20403;-71
2022/11/22 05:28:30;;;;;;;6.63;4.70;;;;;;;;;;5156074;27;20428;-71
2022/11/22 05:30:57;;;;;;;8.63;5.57;;;;;;;;;;5156107;27;20436;-71
2022/11/22 05:33:24;;;;;;;6.40;5.07;;;;;;;;;;5156116;27;20823;-71
2022/11/22 05:35:51;;;;;;;6.93;5.40;;;;;;;;;;5155653;27;20806;-71
2022/11/22 05:38:18;;;;;;;6.17;5.17;;;;;;;;;;5155913;27;20987;-71
2022/11/22 05:40:45;;;;;;;6.10;5.03;;;;;;;;;;5155598;27;20451;-71
2022/11/22 05:43:13;;;;;;;7.33;5.20;;;;;;;;;;5155904;27;20443;-71
2022/11/22 05:45:41;;;;;;;38.60;16.90;;;;;;;;;;5155243;27;20621;-71
2022/11/22 05:48:08;;;;;;;7.80;5.73;;;;;;;;;;5155834;27;20987;-71
2022/11/22 05:50:35;;;;;;;8.97;5.90;;;;;;;;;;5155475;27;20432;-71
2022/11/22 05:53:03;;;;;;;10.43;5.80;;;;;;;;;;5154675;27;20458;-71
2022/11/22 05:55:31;;;;;;;10.17;5.50;;;;;;;;;;5154774;27;20432;-71
2022/11/22 05:58:00;;;;;;;10.10;5.60;;;;;;;;;;5155429;27;20845;-71
2022/11/22 06:00:27;;;;;;;8.17;5.20;;;;;;;;;;5154253;27;20444;-71
2022/11/22 06:02:59;;;;;;;15.03;8.33;;;;;;;;;;5155385;27;20437;-71
2022/11/22 06:05:27;;;;;;;9.50;7.80;;;;;;;;;;5154845;27;20446;-71
2022/11/22 06:07:54;;;;;;;8.87;7.10;;;;;;;;;;5154965;27;20867;-71
2022/11/22 06:10:21;;;;;;;10.20;8.30;;;;;;;;;;5155005;27;20443;-71
2022/11/22 06:12:48;;;;;;;10.83;8.73;;;;;;;;;;5154387;27;20463;-71
2022/11/22 06:15:15;;;;;;;14.87;10.57;;;;;;;;;;5153993;27;20448;-72
2022/11/22 06:17:42;;;;;;;13.70;9.70;;;;;;;;;;5154472;27;20468;-71
2022/11/22 06:20:11;;;;;;;14.40;8.80;;;;;;;;;;5154949;27;20522;-71
2022/11/22 06:22:39;;;;;;;10.40;9.30;;;;;;;;;;5155290;27;20460;-72
2022/11/22 06:25:06;;;;;;;10.90;8.77;;;;;;;;;;5153983;27;20797;-72
2022/11/22 06:27:33;;;;;;;14.90;8.40;;;;;;;;;;5154552;27;20587;-71
2022/11/22 06:30:00;;;;;;;12.83;9.17;;;;;;;;;;5153671;27;20474;-72
2022/11/22 06:32:28;;;;;;;8.20;5.93;;;;;;;;;;5154958;27;20443;-72
2022/11/22 06:34:55;;;;;;;11.53;6.67;;;;;;;;;;5154367;27;20990;-72
2022/11/22 06:37:23;;;;;;;12.60;8.33;;;;;;;;;;5154882;27;20557;-72
2022/11/22 06:39:50;;;;;;;15.23;11.97;;;;;;;;;;5154661;27;20838;-71
2022/11/22 06:42:18;;;;;;;18.70;12.80;;;;;;;;;;5154820;27;20999;-71
2022/11/22 06:44:45;;;;;;;11.77;7.97;;;;;;;;;;5153995;27;20500;-72
2022/11/22 06:47:12;;;;;;;7.10;6.40;;;;;;;;;;5154762;27;20554;-72
2022/11/22 06:49:39;;;;;;;16.60;10.53;;;;;;;;;;5154675;27;20819;-72
2022/11/22 06:52:06;;;;;;;13.53;7.13;;;;;;;;;;5153918;27;20455;-72
2022/11/22 06:54:35;;;;;;;11.13;6.53;;;;;;;;;;5154099;27;20458;-72
2022/11/22 06:57:02;;;;;;;7.97;6.33;;;;;;;;;;5154221;27;20464;-72
2022/11/22 06:59:29;;;;;;;9.47;6.70;;;;;;;;;;5154366;27;20486;-72
2022/11/22 07:01:56;;;;;;;11.73;8.40;;;;;;;;;;5154521;27;20534;-71
2022/11/22 07:04:23;;;;;;;8.50;7.00;;;;;;;;;;5154435;27;20443;-72
2022/11/22 07:06:50;;;;;;;18.70;11.57;;;;;;;;;;5154508;27;20463;-72
2022/11/22 07:09:17;;;;;;;13.53;7.13;;;;;;;;;;5154398;27;20929;-72
2022/11/22 07:11:46;;;;;;;14.93;9.33;;;;;;;;;;5154381;27;20454;-72
2022/11/22 07:14:13;;;;;;;11.50;7.17;;;;;;;;;;5153955;27;20442;-72
2022/11/22 07:16:40;;;;;;;10.10;6.80;;;;;;;;;;5154285;27;20464;-72
2022/11/22 07:19:08;;;;;;;10.53;6.80;;;;;;;;;;5154260;27;20475;-72
2022/11/22 07:21:36;;;;;;;10.17;7.53;;;;;;;;;;5154314;27;20447;-72
2022/11/22 07:24:04;;;;;;;10.70;8.37;;;;;;;;;;5152721;27;20447;-72
2022/11/22 07:26:31;;;;;;;25.50;12.13;;;;;;;;;;5154388;27;20889;-72
2022/11/22 07:29:00;;;;;;;22.67;10.90;;;;;;;;;;5153709;27;20435;-72
2022/11/22 07:31:27;;;;;;;15.17;10.70;;;;;;;;;;5154222;27;20454;-72
2022/11/22 07:33:56;;;;;;;17.53;10.63;;;;;;;;;;5153749;27;20807;-72
2022/11/22 07:36:23;;;;;;;14.90;9.43;;;;;;;;;;5154052;27;20520;-72
2022/11/22 07:38:51;;;;;;;11.93;8.20;;;;;;;;;;5153738;27;20478;-72
2022/11/22 07:41:19;;;;;;;13.33;7.37;;;;;;;;;;5154861;27;20465;-72
2022/11/22 07:43:46;;;;;;;11.40;8.20;;;;;;;;;;5157760;27;20512;-71
2022/11/22 07:46:19;;;;;;;11.77;9.17;;;;;;;;;;5157876;27;20467;-72
2022/11/22 07:48:46;;;;;;;16.10;10.93;;;;;;;;;;5157858;27;20938;-72
2022/11/22 07:51:13;;;;;;;15.87;10.07;;;;;;;;;;5157647;27;20443;-73
2022/11/22 07:53:40;;;;;;;13.40;9.33;;;;;;;;;;5157498;27;20451;-72
2022/11/22 07:56:08;;;;;;;12.77;8.50;;;;;;;;;;5157599;27;20474;-72
2022/11/22 07:58:36;;;;;;;9.77;7.63;;;;;;;;;;5157724;27;20824;-72
2022/11/22 08:01:07;;;;;;;11.10;7.70;;;;;;;;;;5157537;27;20463;-72
2022/11/22 08:03:36;;;;;;;9.50;6.90;;;;;;;;;;5157464;27;20431;-72
2022/11/22 08:06:03;;;;;;;9.10;6.10;;;;;;;;;;5157482;27;20443;-72
2022/11/22 08:08:31;;;;;;;8.57;6.17;;;;;;;;;;5157523;27;20473;-72
2022/11/22 08:10:58;;;;;;;7.80;6.20;;;;;;;;;;5157169;27;20443;-72
2022/11/22 08:13:25;;;;;;;14.47;7.90;;;;;;;;;;5157124;27;20459;-72
2022/11/22 08:15:52;;;;;;;9.90;6.90;;;;;;;;;;5157077;27;20530;-71
2022/11/22 08:18:19;;;;;;;8.93;6.73;;;;;;;;;;5157005;27;20458;-72
2022/11/22 08:20:48;;;;;;;8.23;5.77;;;;;;;;;;5157188;27;20450;-72
2022/11/22 08:23:15;;;;;;;6.53;5.20;;;;;;;;;;5157461;27;20450;-71
2022/11/22 08:25:42;;;;;;;5.07;4.57;;;;;;;;;;5155476;27;20940;-71
2022/11/22 08:28:09;;;;;;;7.20;5.10;;;;;;;;;;5157299;27;20477;-71
2022/11/22 08:30:36;;;;;;;8.63;5.23;;;;;;;;;;5157061;27;20800;-71
2022/11/22 08:33:04;;;;;;;6.10;5.00;;;;;;;;;;5156715;27;20451;-72
2022/11/22 08:35:31;;;;;;;12.53;7.50;;;;;;;;;;5156467;27;20444;-71
2022/11/22 08:37:59;;;;;;;7.43;6.03;;;;;;;;;;5156903;27;20835;-71
2022/11/22 08:40:26;;;;;;;6.97;6.13;;;;;;;;;;5156613;27;20852;-71
2022/11/22 08:42:55;;;;;;;13.67;5.80;;;;;;;;;;5156712;27;20440;-72
2022/11/22 08:45:22;;;;;;;7.40;4.97;;;;;;;;;;5156429;27;20448;-71
2022/11/22 08:47:51;;;;;;;9.10;4.57;;;;;;;;;;5156570;27;21010;-71
2022/11/22 08:50:18;;;;;;;5.53;5.03;;;;;;;;;;5156419;27;20432;-71
2022/11/22 08:52:46;;;;;;;6.53;5.27;;;;;;;;;;5154841;27;20447;-71
2022/11/22 08:55:14;;;;;;;5.83;5.10;;;;;;;;;;5155966;27;20450;-71
2022/11/22 08:57:41;;;;;;;12.40;6.07;;;;;;;;;;5154088;27;20467;-72
2022/11/22 09:00:09;;;;;;;8.10;5.50;;;;;;;;;;5155759;27;20491;-72
2022/11/22 09:02:36;;;;;;;7.30;4.70;;;;;;;;;;5155522;27;20532;-71
2022/11/22 09:05:04;;;;;;;7.17;4.90;;;;;;;;;;5155290;27;20455;-71
2022/11/22 09:07:31;;;;;;;14.50;10.43;;;;;;;;;;5155829;27;20835;-71
2022/11/22 09:09:58;;;;;;;10.07;7.33;;;;;;;;;;5155651;27;20432;-72
2022/11/22 09:12:27;;;;;;;8.30;5.90;;;;;;;;;;5155756;27;20470;-72
2022/11/22 09:14:54;;;;;;;8.10;5.70;;;;;;;;;;5155412;27;20455;-71
2022/11/22 09:17:21;;;;;;;6.47;4.53;;;;;;;;;;5155435;27;20467;-72
2022/11/22 09:19:48;;;;;;;10.23;5.70;;;;;;;;;;5155406;27;20479;-72
2022/11/22 09:22:15;;;;;;;6.90;4.60;;;;;;;;;;5155737;27;20450;-71
2022/11/22 09:24:43;;;;;;;9.60;4.90;;;;;;;;;;5154039;27;20447;-72
2022/11/22 09:27:10;;;;;;;11.90;6.77;;;;;;;;;;5155675;27;20467;-72
2022/11/22 09:29:38;;;;;;;9.40;6.60;;;;;;;;;;5152571;27;20459;-71
2022/11/22 09:32:09;;;;;;;18.20;6.90;;;;;;;;;;5154621;27;20455;-71
2022/11/22 09:34:36;;;;;;;7.07;5.60;;;;;;;;;;5154770;27;20519;-71
2022/11/22 09:37:03;;;;;;;5.97;4.90;;;;;;;;;;5155342;27;20467;-71
2022/11/22 09:39:31;;;;;;;11.00;6.90;;;;;;;;;;5155477;27;20838;-71
2022/11/22 09:42:14;;;;;;;8.30;7.20;;;;;;;;;;5155287;27;20452;-72
2022/11/22 09:44:50;;;;;;;9.20;6.30;;;;;;;;;;5154577;27;20443;-72
2022/11/22 09:47:23;;;;;;;6.80;5.90;;;;;;;;;;5155198;27;20493;-71
2022/11/22 09:49:58;;;;;;;11.60;6.67;;;;;;;;;;5155383;27;20799;-72
2022/11/22 09:52:28;;;;;;;7.77;6.10;;;;;;;;;;5154814;27;20435;-71
2022/11/22 09:54:57;;;;;;;7.03;5.57;;;;;;;;;;5153902;27;20485;-71
2022/11/22 09:57:25;;;;;;;8.10;6.50;;;;;;;;;;5155055;27;20539;-72
2022/11/22 09:59:59;;;;;;;8.70;6.00;;;;;;;;;;5154975;27;20830;-72
2022/11/22 10:02:30;;;;;;;7.87;5.70;;;;;;;;;;5154709;27;20442;-71
2022/11/22 10:04:58;;;;;;;8.10;5.70;;;;;;;;;;5154468;27;20807;-72
2022/11/22 10:07:28;;;;;;;7.80;6.13;;;;;;;;;;5154798;27;20967;-72
2022/11/22 10:09:59;;;;;;;9.77;7.60;;;;;;;;;;5154942;27;20928;-72
2022/11/22 10:12:28;;;;;;;21.23;12.10;;;;;;;;;;5154175;27;20455;-71
2022/11/22 10:15:03;;;;;;;8.43;6.00;;;;;;;;;;5154514;27;20803;-71
2022/11/22 10:17:37;;;;;;;7.10;5.27;;;;;;;;;;5154528;27;20477;-71
2022/11/22 10:20:07;;;;;;;5.57;4.93;;;;;;;;;;5154315;27;20489;-72
2022/11/22 10:22:35;;;;;;;6.30;5.13;;;;;;;;;;5148955;27;20456;-72
2022/11/22 10:25:03;;;;;;;7.50;4.70;;;;;;;;;;5150558;27;20448;-72
2022/11/22 10:27:32;;;;;;;5.70;5.10;;;;;;;;;;5152908;27;20471;-72
2022/11/22 10:30:02;;;;;;;11.80;6.20;;;;;;;;;;5131888;27;20457;-72
2022/11/22 10:32:35;;;;;;;6.20;4.87;;;;;;;;;;5132137;27;20445;-71
2022/11/22 10:35:22;;;;;;;14.50;6.87;;;;;;;;;;5132389;27;20514;-72
2022/11/22 10:37:54;;;;;;;10.80;6.33;;;;;;;;;;5133163;27;20464;-72
2022/11/22 10:40:24;;;;;;;7.87;6.80;;;;;;;;;;5133567;27;20468;-72
2022/11/22 10:43:05;;;;;;;12.57;8.10;;;;;;;;;;5132726;27;20444;-72
2022/11/22 10:45:36;;;;;;;12.23;7.43;;;;;;;;;;5133285;27;20434;-72
2022/11/22 10:48:08;;;;;;;9.70;8.17;;;;;;;;;;5133658;27;20464;-72
2022/11/22 10:50:42;;;;;;;23.13;17.33;;;;;;;;;;5133459;27;20429;-72
2022/11/22 10:53:13;;;;;;;12.63;10.27;;;;;;;;;;5133025;28;20433;-72
2022/11/22 10:55:47;;;;;;;18.90;15.20;;;;;;;;;;5133073;28;20463;-72
2022/11/22 10:58:18;;;;;;;27.23;17.70;;;;;;;;;;5133591;28;20433;-72
2022/11/22 11:00:49;;;;;;;20.30;14.80;;;;;;;;;;5133882;28;20977;-72
2022/11/22 11:03:21;;;;;;;56.63;40.43;;;;;;;;;;5133834;28;20805;-72
2022/11/22 11:05:51;;;;;;;44.80;35.83;;;;;;;;;;5153461;27;20456;-74
2022/11/22 11:08:22;;;;;;;27.37;18.90;;;;;;;;;;5154133;27;20448;-72
2022/11/22 11:10:49;;;;;;;40.63;25.80;;;;;;;;;;5154085;27;20439;-71
2022/11/22 11:13:20;;;;;;;27.50;23.50;;;;;;;;;;5153946;27;20463;-72
2022/11/22 11:15:51;;;;;;;17.70;13.97;;;;;;;;;;5154172;27;20923;-71
2022/11/22 11:18:19;;;;;;;31.80;28.23;;;;;;;;;;5158186;27;20822;-71
2022/11/22 11:20:47;;;;;;;14.30;11.60;;;;;;;;;;5158033;27;20483;-71
2022/11/22 11:23:14;;;;;;;12.50;8.70;;;;;;;;;;5158286;27;20929;-71
2022/11/22 11:25:43;;;;;;;10.50;9.40;;;;;;;;;;5156709;27;20533;-71
2022/11/22 11:28:12;;;;;;;12.40;9.30;;;;;;;;;;5158000;27;20479;-72
2022/11/22 11:30:40;;;;;;;14.77;11.27;;;;;;;;;;5157832;27;20428;-71
2022/11/22 11:33:17;;;;;;;13.00;11.10;;;;;;;;;;5158394;27;20469;-72
2022/11/22 11:35:45;;;;;;;19.53;11.00;;;;;;;;;;5157466;27;20442;-71
2022/11/22 11:38:26;;;;;;;13.80;10.50;;;;;;;;;;5157928;27;20824;-71
2022/11/22 11:40:53;;;;;;;18.67;12.13;;;;;;;;;;5158005;27;20467;-71
2022/11/22 11:43:21;;;;;;;14.50;10.97;;;;;;;;;;5157907;27;20443;-71
2022/11/22 11:45:48;;;;;;;16.67;12.30;;;;;;;;;;5157501;27;20439;-71
2022/11/22 11:48:31;;;;;;;15.37;9.60;;;;;;;;;;5157883;27;20820;-71
2022/11/22 11:51:08;;;;;;;13.77;9.57;;;;;;;;;;5154471;27;20473;-72
2022/11/22 11:53:36;;;;;;;23.43;13.90;;;;;;;;;;5156318;27;20427;-70
2022/11/22 11:56:19;;;;;;;20.67;13.30;;;;;;;;;;5157233;27;20431;-71
2022/11/22 11:58:51;;;;;;;22.73;14.27;;;;;;;;;;5157602;27;20935;-71
2022/11/22 12:01:19;;;;;;;23.27;15.33;;;;;;;;;;5157370;27;20487;-72
2022/11/22 12:03:51;;;;;;;21.43;13.73;;;;;;;;;;5156731;27;20443;-71
2022/11/22 12:06:19;;;;;;;23.93;14.80;;;;;;;;;;5157543;27;20994;-71
2022/11/22 12:08:47;;;;;;;21.77;15.47;;;;;;;;;;5157303;27;20443;-71
2022/11/22 12:11:18;;;;;;;38.63;22.73;;;;;;;;;;5157335;27;20462;-72
2022/11/22 12:13:46;;;;;;;25.90;17.07;;;;;;;;;;5156227;27;20453;-71
2022/11/22 12:16:16;;;;;;;17.50;12.63;;;;;;;;;;5156513;27;20471;-70
2022/11/22 12:18:47;;;;;;;19.20;12.53;;;;;;;;;;5157169;27;20462;-71
2022/11/22 12:21:19;;;;;;;17.03;14.50;;;;;;;;;;5157240;27;20972;-71
2022/11/22 12:23:51;;;;;;;16.10;11.13;;;;;;;;;;5155387;27;20686;-71
2022/11/22 12:26:18;;;;;;;12.73;10.10;;;;;;;;;;5155575;27;20471;-69
2022/11/22 12:28:45;;;;;;;12.00;8.40;;;;;;;;;;5154654;27;20450;-71
2022/11/22 12:31:18;;;;;;;11.53;8.50;;;;;;;;;;5156960;27;20450;-71
2022/11/22 12:33:48;;;;;;;6.37;5.47;;;;;;;;;;5155315;27;20428;-70
2022/11/22 12:36:17;;;;;;;7.23;5.13;;;;;;;;;;5156368;27;20464;-71
2022/11/22 12:38:46;;;;;;;5.17;4.67;;;;;;;;;;5156400;27;20448;-71
2022/11/22 12:41:16;;;;;;;5.20;3.50;;;;;;;;;;5156806;27;20815;-69
2022/11/22 12:43:45;;;;;;;4.10;2.73;;;;;;;;;;5156149;27;20428;-69
2022/11/22 12:46:16;;;;;;;9.33;6.03;;;;;;;;;;5155789;27;20474;-71
2022/11/22 12:48:46;;;;;;;9.03;4.20;;;;;;;;;;5156167;27;20984;-71
2022/11/22 12:51:16;;;;;;;4.13;2.87;;;;;;;;;;5156235;27;20442;-71
2022/11/22 12:53:45;;;;;;;3.23;2.93;;;;;;;;;;5154810;27;20443;-70
2022/11/22 12:56:18;;;;;;;9.83;3.90;;;;;;;;;;5156136;27;20486;-71
2022/11/22 12:58:48;;;;;;;6.77;4.77;;;;;;;;;;5156228;27;20432;-71
2022/11/22 13:01:17;;;;;;;9.40;5.30;;;;;;;;;;5156133;27;20468;-71
2022/11/22 13:03:49;;;;;;;10.23;5.80;;;;;;;;;;5155435;27;20470;-70
2022/11/22 13:06:18;;;;;;;5.90;4.80;;;;;;;;;;5155789;27;20897;-71
2022/11/22 13:08:51;;;;;;;5.50;3.40;;;;;;;;;;5155455;27;20451;-71
2022/11/22 13:11:22;;;;;;;5.53;4.27;;;;;;;;;;5155859;27;20443;-72
2022/11/22 13:13:51;;;;;;;8.57;6.03;;;;;;;;;;5154885;27;20466;-70
2022/11/22 13:16:18;;;;;;;17.50;8.20;;;;;;;;;;5155616;27;20882;-71
2022/11/22 13:18:47;;;;;;;9.70;6.63;;;;;;;;;;5155460;27;20940;-71
2022/11/22 13:21:24;;;;;;;8.17;5.97;;;;;;;;;;5155496;27;21049;-71
2022/11/22 13:24:04;;;;;;;7.80;5.90;;;;;;;;;;5154650;27;20784;-71
2022/11/22 13:26:37;;;;;;;9.17;6.23;;;;;;;;;;5155337;27;20478;-71
2022/11/22 13:29:10;;;;;;;13.43;7.83;;;;;;;;;;5155178;27;20944;-71
2022/11/22 13:31:37;;;;;;;12.27;6.40;;;;;;;;;;5155074;27;20458;-71
2022/11/22 13:34:05;;;;;;;7.63;5.60;;;;;;;;;;5154423;27;20455;-71
2022/11/22 13:36:37;;;;;;;8.10;6.30;;;;;;;;;;5154934;27;20467;-70
2022/11/22 13:39:06;;;;;;;7.63;4.80;;;;;;;;;;5154667;27;20452;-71
2022/11/22 13:41:40;;;;;;;7.53;3.43;;;;;;;;;;5154984;27;20480;-71
2022/11/22 13:44:18;;;;;;;7.80;3.80;;;;;;;;;;5154528;27;20447;-71
2022/11/22 13:46:53;;;;;;;6.33;3.53;;;;;;;;;;5154310;27;20483;-71
2022/11/22 13:49:34;;;;;;;8.90;4.20;;;;;;;;;;5154845;27;20451;-71
2022/11/22 13:52:03;;;;;;;7.17;4.50;;;;;;;;;;5154807;27;20962;-71
2022/11/22 13:54:38;;;;;;;6.97;4.03;;;;;;;;;;5154439;27;20454;-70
2022/11/22 13:57:24;;;;;;;5.47;4.60;;;;;;;;;;5153600;27;20491;-72
2022/11/22 14:00:06;;;;;;;9.90;5.90;;;;;;;;;;5145534;27;20448;-72
2022/11/22 14:02:33;;;;;;;9.93;5.90;;;;;;;;;;5151471;27;20448;-71
2022/11/22 14:05:00;;;;;;;7.73;5.37;;;;;;;;;;5152726;27;20825;-71
2022/11/22 14:07:33;;;;;;;6.90;4.97;;;;;;;;;;5151449;27;20463;-71
2022/11/22 14:10:01;;;;;;;9.43;6.03;;;;;;;;;;5151084;27;20447;-71
2022/11/22 14:12:34;;;;;;;8.03;5.47;;;;;;;;;;5153612;27;20456;-72
2022/11/22 14:15:10;;;;;;;7.17;5.00;;;;;;;;;;5152609;27;20828;-71
2022/11/22 14:17:42;;;;;;;7.00;4.13;;;;;;;;;;5153341;27;20459;-72
2022/11/22 14:20:17;;;;;;;10.33;5.37;;;;;;;;;;5153126;27;20484;-71
2022/11/22 14:22:49;;;;;;;8.40;6.17;;;;;;;;;;5152965;27;20440;-72
2022/11/22 14:25:31;;;;;;;11.10;6.80;;;;;;;;;;5151835;27;20784;-72
2022/11/22 14:28:04;;;;;;;10.73;5.50;;;;;;;;;;5151273;27;20982;-71
2022/11/22 14:30:39;;;;;;;10.73;6.10;;;;;;;;;;5152586;27;20448;-72
2022/11/22 14:33:14;;;;;;;9.27;6.20;;;;;;;;;;5152772;27;20803;-71
2022/11/22 14:36:01;;;;;;;7.87;5.80;;;;;;;;;;5151184;27;20454;-71
2022/11/22 14:38:31;;;;;;;9.13;5.90;;;;;;;;;;5152345;27;21007;-72
2022/11/22 14:41:28;;;;;;;10.50;6.10;;;;;;;;;;5152272;27;20479;-71
2022/11/22 14:43:59;;;;;;;8.30;6.00;;;;;;;;;;5152742;27;20430;-71
2022/11/22 14:46:29;;;;;;;12.23;7.27;;;;;;;;;;5153666;27;20463;-71
2022/11/22 14:49:00;;;;;;;6.87;6.00;;;;;;;;;;5153904;27;20458;-72
2022/11/22 14:51:29;;;;;;;9.47;7.00;;;;;;;;;;5152827;27;20444;-72
2022/11/22 14:53:59;;;;;;;7.83;5.93;;;;;;;;;;5153762;27;20454;-72
2022/11/22 14:56:28;;;;;;;10.67;6.50;;;;;;;;;;5153944;27;20464;-72